sensor_id;sensor_type;location;lat;lon;timestamp;temperature;humidity
25668;DHT22;18003;-33.830;151.202;2023-07-29T00:00:08;15.40;99.90
25668;DHT22;18003;-33.830;151.202;2023-07-29T00:02:38;15.50;99.90
25668;DHT22;18003;-33.830;151.202;2023-07-29T00:05:08;15.50;99.90
25668;DHT22;18003;-33.830;151.202;2023-07-29T00:07:38;15.50;99.90
25668;DHT22;18003;-33.830;151.202;2023-07-29T00:10:09;15.50;99.90
25668;DHT22;18003;-33.830;151.202;2023-07-29T00:12:39;15.50;99.90
25668;DHT22;18003;-33.830;151.202;2023-07-29T00:15:10;15.50;99.90
25668;DHT22;18003;-33.830;151.202;2023-07-29T00:17:39;15.50;99.90
25668;DHT22;18003;-33.830;151.202;2023-07-29T00:20:10;15.50;99.90
25668;DHT22;18003;-33.830;151.202;2023-07-29T00:22:41;15.60;99.90
25668;DHT22;18003;-33.830;151.202;2023-07-29T00:25:11;15.60;99.90
25668;DHT22;18003;-33.830;151.202;2023-07-29T00:27:41;15.70;99.90
25668;DHT22;18003;-33.830;151.202;2023-07-29T00:30:12;15.70;99.90
25668;DHT22;18003;-33.830;151.202;2023-07-29T00:32:42;15.70;99.90
25668;DHT22;18003;-33.830;151.202;2023-07-29T00:35:11;15.70;99.90
25668;DHT22;18003;-33.830;151.202;2023-07-29T00:37:42;15.80;99.90
25668;DHT22;18003;-33.830;151.202;2023-07-29T00:40:18;15.80;99.90
25668;DHT22;18003;-33.830;151.202;2023-07-29T00:42:47;15.90;99.90
25668;DHT22;18003;-33.830;151.202;2023-07-29T00:45:17;15.90;99.90
25668;DHT22;18003;-33.830;151.202;2023-07-29T00:47:48;15.90;99.90
25668;DHT22;18003;-33.830;151.202;2023-07-29T00:50:18;15.90;99.90
25668;DHT22;18003;-33.830;151.202;2023-07-29T00:52:48;15.90;99.90
25668;DHT22;18003;-33.830;151.202;2023-07-29T00:55:18;15.90;99.90
25668;DHT22;18003;-33.830;151.202;2023-07-29T00:57:48;15.90;99.90
25668;DHT22;18003;-33.830;151.202;2023-07-29T01:00:21;15.90;99.90
25668;DHT22;18003;-33.830;151.202;2023-07-29T01:02:52;15.90;99.90
25668;DHT22;18003;-33.830;151.202;2023-07-29T01:05:23;16.00;99.90
25668;DHT22;18003;-33.830;151.202;2023-07-29T01:08:09;16.00;99.90
25668;DHT22;18003;-33.830;151.202;2023-07-29T01:13:24;16.10;99.90
25668;DHT22;18003;-33.830;151.202;2023-07-29T01:16:01;16.10;99.90
25668;DHT22;18003;-33.830;151.202;2023-07-29T01:18:32;16.10;99.90
25668;DHT22;18003;-33.830;151.202;2023-07-29T01:21:03;16.10;99.90
25668;DHT22;18003;-33.830;151.202;2023-07-29T01:23:35;16.10;99.90
25668;DHT22;18003;-33.830;151.202;2023-07-29T01:26:05;16.10;99.90
25668;DHT22;18003;-33.830;151.202;2023-07-29T01:28:35;16.20;99.90
25668;DHT22;18003;-33.830;151.202;2023-07-29T01:33:45;16.30;99.90
25668;DHT22;18003;-33.830;151.202;2023-07-29T01:36:22;16.30;99.90
25668;DHT22;18003;-33.830;151.202;2023-07-29T01:38:49;16.30;99.90
25668;DHT22;18003;-33.830;151.202;2023-07-29T01:41:20;16.30;99.90
25668;DHT22;18003;-33.830;151.202;2023-07-29T01:43:51;16.40;99.90
25668;DHT22;18003;-33.830;151.202;2023-07-29T01:46:21;16.30;99.90
25668;DHT22;18003;-33.830;151.202;2023-07-29T01:48:51;16.30;99.90
25668;DHT22;18003;-33.830;151.202;2023-07-29T01:51:21;16.30;99.90
25668;DHT22;18003;-33.830;151.202;2023-07-29T01:53:51;16.30;99.90
25668;DHT22;18003;-33.830;151.202;2023-07-29T01:56:21;16.30;99.90
25668;DHT22;18003;-33.830;151.202;2023-07-29T01:58:51;16.30;99.90
25668;DHT22;18003;-33.830;151.202;2023-07-29T02:01:21;16.30;99.90
25668;DHT22;18003;-33.830;151.202;2023-07-29T02:03:51;16.30;99.90
25668;DHT22;18003;-33.830;151.202;2023-07-29T02:06:23;16.30;99.90
25668;DHT22;18003;-33.830;151.202;2023-07-29T02:08:52;16.30;99.90
25668;DHT22;18003;-33.830;151.202;2023-07-29T02:11:22;16.30;99.90
25668;DHT22;18003;-33.830;151.202;2023-07-29T02:13:54;16.30;99.90
25668;DHT22;18003;-33.830;151.202;2023-07-29T02:16:24;16.40;99.90
25668;DHT22;18003;-33.830;151.202;2023-07-29T02:18:54;16.40;99.90
25668;DHT22;18003;-33.830;151.202;2023-07-29T02:21:24;16.40;99.90
25668;DHT22;18003;-33.830;151.202;2023-07-29T02:23:54;16.40;99.90
25668;DHT22;18003;-33.830;151.202;2023-07-29T02:26:25;16.40;99.90
25668;DHT22;18003;-33.830;151.202;2023-07-29T02:28:55;16.40;99.90
25668;DHT22;18003;-33.830;151.202;2023-07-29T02:31:25;16.50;99.90
25668;DHT22;18003;-33.830;151.202;2023-07-29T02:33:55;16.50;99.90
25668;DHT22;18003;-33.830;151.202;2023-07-29T02:36:26;16.40;99.90
25668;DHT22;18003;-33.830;151.202;2023-07-29T02:38:56;16.40;99.90
25668;DHT22;18003;-33.830;151.202;2023-07-29T02:41:26;16.40;99.90
25668;DHT22;18003;-33.830;151.202;2023-07-29T02:43:56;16.40;99.90
25668;DHT22;18003;-33.830;151.202;2023-07-29T02:46:26;16.40;99.90
25668;DHT22;18003;-33.830;151.202;2023-07-29T02:48:56;16.40;99.90
25668;DHT22;18003;-33.830;151.202;2023-07-29T02:51:27;16.90;99.90
25668;DHT22;18003;-33.830;151.202;2023-07-29T02:53:57;17.40;99.90
25668;DHT22;18003;-33.830;151.202;2023-07-29T02:56:27;17.70;99.90
25668;DHT22;18003;-33.830;151.202;2023-07-29T02:58:58;17.80;99.90
25668;DHT22;18003;-33.830;151.202;2023-07-29T03:01:29;17.90;99.90
25668;DHT22;18003;-33.830;151.202;2023-07-29T03:03:59;18.00;99.90
25668;DHT22;18003;-33.830;151.202;2023-07-29T03:06:29;18.00;99.90
25668;DHT22;18003;-33.830;151.202;2023-07-29T03:08:59;18.10;99.90
25668;DHT22;18003;-33.830;151.202;2023-07-29T03:11:29;18.30;99.90
25668;DHT22;18003;-33.830;151.202;2023-07-29T03:14:00;18.30;99.90
25668;DHT22;18003;-33.830;151.202;2023-07-29T03:16:30;18.20;99.90
25668;DHT22;18003;-33.830;151.202;2023-07-29T03:19:00;18.30;99.90
25668;DHT22;18003;-33.830;151.202;2023-07-29T03:21:30;18.30;99.90
25668;DHT22;18003;-33.830;151.202;2023-07-29T03:24:00;18.30;99.90
25668;DHT22;18003;-33.830;151.202;2023-07-29T03:26:31;18.30;99.90
25668;DHT22;18003;-33.830;151.202;2023-07-29T03:29:01;18.30;99.90
25668;DHT22;18003;-33.830;151.202;2023-07-29T03:31:31;18.20;99.90
25668;DHT22;18003;-33.830;151.202;2023-07-29T03:34:01;18.20;99.90
25668;DHT22;18003;-33.830;151.202;2023-07-29T03:36:31;18.20;99.90
25668;DHT22;18003;-33.830;151.202;2023-07-29T03:39:01;18.20;99.90
25668;DHT22;18003;-33.830;151.202;2023-07-29T03:41:31;18.10;99.90
25668;DHT22;18003;-33.830;151.202;2023-07-29T03:44:01;18.10;99.90
25668;DHT22;18003;-33.830;151.202;2023-07-29T03:46:32;18.10;99.90
25668;DHT22;18003;-33.830;151.202;2023-07-29T03:49:02;18.00;99.90
25668;DHT22;18003;-33.830;151.202;2023-07-29T03:51:32;17.90;99.90
25668;DHT22;18003;-33.830;151.202;2023-07-29T03:54:02;18.00;99.90
25668;DHT22;18003;-33.830;151.202;2023-07-29T03:56:32;18.10;99.90
25668;DHT22;18003;-33.830;151.202;2023-07-29T03:59:07;18.20;99.90
25668;DHT22;18003;-33.830;151.202;2023-07-29T04:01:37;18.10;99.90
25668;DHT22;18003;-33.830;151.202;2023-07-29T04:04:07;18.10;99.90
25668;DHT22;18003;-33.830;151.202;2023-07-29T04:06:37;18.20;99.90
25668;DHT22;18003;-33.830;151.202;2023-07-29T04:09:07;18.10;99.90
25668;DHT22;18003;-33.830;151.202;2023-07-29T04:11:38;18.10;99.90
25668;DHT22;18003;-33.830;151.202;2023-07-29T04:14:08;18.10;99.90
25668;DHT22;18003;-33.830;151.202;2023-07-29T04:16:38;18.20;99.90
25668;DHT22;18003;-33.830;151.202;2023-07-29T04:19:08;18.20;99.90
25668;DHT22;18003;-33.830;151.202;2023-07-29T04:21:38;18.20;99.90
25668;DHT22;18003;-33.830;151.202;2023-07-29T04:24:08;18.10;99.90
25668;DHT22;18003;-33.830;151.202;2023-07-29T04:26:38;18.00;99.90
25668;DHT22;18003;-33.830;151.202;2023-07-29T04:29:08;18.00;99.90
25668;DHT22;18003;-33.830;151.202;2023-07-29T04:31:38;18.00;99.90
25668;DHT22;18003;-33.830;151.202;2023-07-29T04:34:08;18.00;99.90
25668;DHT22;18003;-33.830;151.202;2023-07-29T04:36:38;17.90;99.90
25668;DHT22;18003;-33.830;151.202;2023-07-29T04:39:08;18.00;99.90
25668;DHT22;18003;-33.830;151.202;2023-07-29T04:41:38;18.00;99.90
25668;DHT22;18003;-33.830;151.202;2023-07-29T04:44:08;18.00;99.90
25668;DHT22;18003;-33.830;151.202;2023-07-29T04:46:39;18.10;99.90
25668;DHT22;18003;-33.830;151.202;2023-07-29T04:49:09;18.20;99.90
25668;DHT22;18003;-33.830;151.202;2023-07-29T04:51:39;18.30;99.90
25668;DHT22;18003;-33.830;151.202;2023-07-29T04:54:10;18.20;99.90
25668;DHT22;18003;-33.830;151.202;2023-07-29T04:56:40;18.20;99.90
25668;DHT22;18003;-33.830;151.202;2023-07-29T04:59:10;18.20;99.90
25668;DHT22;18003;-33.830;151.202;2023-07-29T05:01:41;18.10;99.90
25668;DHT22;18003;-33.830;151.202;2023-07-29T05:04:11;18.20;99.90
25668;DHT22;18003;-33.830;151.202;2023-07-29T05:06:41;18.20;99.90
25668;DHT22;18003;-33.830;151.202;2023-07-29T05:09:18;18.20;99.90
25668;DHT22;18003;-33.830;151.202;2023-07-29T05:11:49;18.20;99.90
25668;DHT22;18003;-33.830;151.202;2023-07-29T05:14:19;18.20;99.90
25668;DHT22;18003;-33.830;151.202;2023-07-29T05:16:49;18.20;99.90
25668;DHT22;18003;-33.830;151.202;2023-07-29T05:19:19;18.20;99.90
25668;DHT22;18003;-33.830;151.202;2023-07-29T05:21:49;18.20;99.90
25668;DHT22;18003;-33.830;151.202;2023-07-29T05:24:19;18.10;99.90
25668;DHT22;18003;-33.830;151.202;2023-07-29T05:26:49;18.10;99.90
25668;DHT22;18003;-33.830;151.202;2023-07-29T05:29:20;18.00;99.90
25668;DHT22;18003;-33.830;151.202;2023-07-29T05:31:50;18.00;99.90
25668;DHT22;18003;-33.830;151.202;2023-07-29T05:34:20;18.10;99.90
25668;DHT22;18003;-33.830;151.202;2023-07-29T05:36:50;18.00;99.90
25668;DHT22;18003;-33.830;151.202;2023-07-29T05:39:20;18.00;99.90
25668;DHT22;18003;-33.830;151.202;2023-07-29T05:41:50;17.90;99.90
25668;DHT22;18003;-33.830;151.202;2023-07-29T05:44:20;17.90;99.90
25668;DHT22;18003;-33.830;151.202;2023-07-29T05:46:50;17.90;99.90
25668;DHT22;18003;-33.830;151.202;2023-07-29T05:49:20;17.80;99.90
25668;DHT22;18003;-33.830;151.202;2023-07-29T05:51:50;17.80;99.90
25668;DHT22;18003;-33.830;151.202;2023-07-29T05:54:21;17.80;99.90
25668;DHT22;18003;-33.830;151.202;2023-07-29T05:56:52;17.80;99.90
25668;DHT22;18003;-33.830;151.202;2023-07-29T05:59:22;17.80;99.90
25668;DHT22;18003;-33.830;151.202;2023-07-29T06:01:52;17.80;99.90
25668;DHT22;18003;-33.830;151.202;2023-07-29T06:04:22;17.80;99.90
25668;DHT22;18003;-33.830;151.202;2023-07-29T06:06:52;17.90;99.90
25668;DHT22;18003;-33.830;151.202;2023-07-29T06:09:24;17.80;99.90
25668;DHT22;18003;-33.830;151.202;2023-07-29T06:11:53;17.70;99.90
25668;DHT22;18003;-33.830;151.202;2023-07-29T06:14:24;17.70;99.90
25668;DHT22;18003;-33.830;151.202;2023-07-29T06:16:54;17.70;99.90
25668;DHT22;18003;-33.830;151.202;2023-07-29T06:19:24;17.60;99.90
25668;DHT22;18003;-33.830;151.202;2023-07-29T06:21:55;17.60;99.90
25668;DHT22;18003;-33.830;151.202;2023-07-29T06:24:25;17.50;99.90
25668;DHT22;18003;-33.830;151.202;2023-07-29T06:26:55;17.40;99.90
25668;DHT22;18003;-33.830;151.202;2023-07-29T06:29:25;17.40;99.90
25668;DHT22;18003;-33.830;151.202;2023-07-29T06:31:55;17.40;99.90
25668;DHT22;18003;-33.830;151.202;2023-07-29T06:34:25;17.30;99.90
25668;DHT22;18003;-33.830;151.202;2023-07-29T06:36:55;17.30;99.90
25668;DHT22;18003;-33.830;151.202;2023-07-29T06:39:25;17.30;99.90
25668;DHT22;18003;-33.830;151.202;2023-07-29T06:41:55;17.30;99.90
25668;DHT22;18003;-33.830;151.202;2023-07-29T06:44:25;17.30;99.90
25668;DHT22;18003;-33.830;151.202;2023-07-29T06:46:57;17.30;99.90
25668;DHT22;18003;-33.830;151.202;2023-07-29T06:49:26;17.20;99.90
25668;DHT22;18003;-33.830;151.202;2023-07-29T06:51:56;17.20;99.90
25668;DHT22;18003;-33.830;151.202;2023-07-29T06:54:27;17.20;99.90
25668;DHT22;18003;-33.830;151.202;2023-07-29T06:56:56;17.20;99.90
25668;DHT22;18003;-33.830;151.202;2023-07-29T06:59:27;17.10;99.90
25668;DHT22;18003;-33.830;151.202;2023-07-29T07:01:57;17.10;99.90
25668;DHT22;18003;-33.830;151.202;2023-07-29T07:04:28;17.10;99.90
25668;DHT22;18003;-33.830;151.202;2023-07-29T07:06:58;17.10;99.90
25668;DHT22;18003;-33.830;151.202;2023-07-29T07:09:28;17.10;99.90
25668;DHT22;18003;-33.830;151.202;2023-07-29T07:11:58;17.00;99.90
25668;DHT22;18003;-33.830;151.202;2023-07-29T07:14:28;17.00;99.90
25668;DHT22;18003;-33.830;151.202;2023-07-29T07:16:58;17.00;99.90
25668;DHT22;18003;-33.830;151.202;2023-07-29T07:19:28;16.90;99.90
25668;DHT22;18003;-33.830;151.202;2023-07-29T07:21:58;16.90;99.90
25668;DHT22;18003;-33.830;151.202;2023-07-29T07:24:28;16.90;99.90
25668;DHT22;18003;-33.830;151.202;2023-07-29T07:26:58;16.90;99.90
25668;DHT22;18003;-33.830;151.202;2023-07-29T07:29:28;16.90;99.90
25668;DHT22;18003;-33.830;151.202;2023-07-29T07:31:59;16.90;99.90
25668;DHT22;18003;-33.830;151.202;2023-07-29T07:34:28;16.80;99.90
25668;DHT22;18003;-33.830;151.202;2023-07-29T07:36:59;16.80;99.90
25668;DHT22;18003;-33.830;151.202;2023-07-29T07:39:29;16.90;99.90
25668;DHT22;18003;-33.830;151.202;2023-07-29T07:41:59;16.90;99.90
25668;DHT22;18003;-33.830;151.202;2023-07-29T07:44:28;16.80;99.90
25668;DHT22;18003;-33.830;151.202;2023-07-29T07:46:58;16.70;99.90
25668;DHT22;18003;-33.830;151.202;2023-07-29T07:49:28;16.60;99.90
25668;DHT22;18003;-33.830;151.202;2023-07-29T07:51:59;16.60;99.90
25668;DHT22;18003;-33.830;151.202;2023-07-29T07:54:29;16.50;99.90
25668;DHT22;18003;-33.830;151.202;2023-07-29T07:56:59;16.40;99.90
25668;DHT22;18003;-33.830;151.202;2023-07-29T07:59:29;16.40;99.90
25668;DHT22;18003;-33.830;151.202;2023-07-29T08:01:59;16.20;99.90
25668;DHT22;18003;-33.830;151.202;2023-07-29T08:04:29;16.10;99.90
25668;DHT22;18003;-33.830;151.202;2023-07-29T08:06:59;16.10;99.90
25668;DHT22;18003;-33.830;151.202;2023-07-29T08:09:29;16.00;99.90
25668;DHT22;18003;-33.830;151.202;2023-07-29T08:11:59;16.00;99.90
25668;DHT22;18003;-33.830;151.202;2023-07-29T08:14:29;16.00;99.90
25668;DHT22;18003;-33.830;151.202;2023-07-29T08:17:00;15.90;99.90
25668;DHT22;18003;-33.830;151.202;2023-07-29T08:19:29;16.00;99.90
25668;DHT22;18003;-33.830;151.202;2023-07-29T08:22:00;15.90;99.90
25668;DHT22;18003;-33.830;151.202;2023-07-29T08:24:31;15.80;99.90
25668;DHT22;18003;-33.830;151.202;2023-07-29T08:27:02;15.80;99.90
25668;DHT22;18003;-33.830;151.202;2023-07-29T08:29:32;15.80;99.90
25668;DHT22;18003;-33.830;151.202;2023-07-29T08:32:02;15.80;99.90
25668;DHT22;18003;-33.830;151.202;2023-07-29T08:34:32;15.80;99.90
25668;DHT22;18003;-33.830;151.202;2023-07-29T08:37:02;15.80;99.90
25668;DHT22;18003;-33.830;151.202;2023-07-29T08:39:32;15.80;99.90
25668;DHT22;18003;-33.830;151.202;2023-07-29T08:42:12;15.90;99.90
25668;DHT22;18003;-33.830;151.202;2023-07-29T08:44:43;15.90;99.90
25668;DHT22;18003;-33.830;151.202;2023-07-29T08:47:13;15.90;99.90
25668;DHT22;18003;-33.830;151.202;2023-07-29T08:49:46;15.90;99.90
25668;DHT22;18003;-33.830;151.202;2023-07-29T08:52:17;15.90;99.90
25668;DHT22;18003;-33.830;151.202;2023-07-29T08:54:48;15.80;99.90
25668;DHT22;18003;-33.830;151.202;2023-07-29T08:57:18;15.80;99.90
25668;DHT22;18003;-33.830;151.202;2023-07-29T08:59:50;15.70;99.90
25668;DHT22;18003;-33.830;151.202;2023-07-29T09:02:20;15.60;99.90
25668;DHT22;18003;-33.830;151.202;2023-07-29T09:04:51;15.60;99.90
25668;DHT22;18003;-33.830;151.202;2023-07-29T09:07:21;15.60;99.90
25668;DHT22;18003;-33.830;151.202;2023-07-29T09:09:51;15.60;99.90
25668;DHT22;18003;-33.830;151.202;2023-07-29T09:12:22;15.50;99.90
25668;DHT22;18003;-33.830;151.202;2023-07-29T09:14:55;15.50;99.90
25668;DHT22;18003;-33.830;151.202;2023-07-29T09:17:25;15.50;99.90
25668;DHT22;18003;-33.830;151.202;2023-07-29T09:19:55;15.50;99.90
25668;DHT22;18003;-33.830;151.202;2023-07-29T09:22:30;15.50;99.90
25668;DHT22;18003;-33.830;151.202;2023-07-29T09:24:57;15.40;99.90
25668;DHT22;18003;-33.830;151.202;2023-07-29T09:27:35;15.40;99.90
25668;DHT22;18003;-33.830;151.202;2023-07-29T09:30:19;15.40;99.90
25668;DHT22;18003;-33.830;151.202;2023-07-29T09:32:42;15.50;99.90
25668;DHT22;18003;-33.830;151.202;2023-07-29T09:35:13;15.50;99.90
25668;DHT22;18003;-33.830;151.202;2023-07-29T09:37:44;15.50;99.90
25668;DHT22;18003;-33.830;151.202;2023-07-29T09:40:17;15.40;99.90
25668;DHT22;18003;-33.830;151.202;2023-07-29T09:42:54;15.40;99.90
25668;DHT22;18003;-33.830;151.202;2023-07-29T09:45:28;15.30;99.90
25668;DHT22;18003;-33.830;151.202;2023-07-29T09:47:58;15.20;99.90
25668;DHT22;18003;-33.830;151.202;2023-07-29T09:50:28;15.20;99.90
25668;DHT22;18003;-33.830;151.202;2023-07-29T09:52:59;15.40;99.90
25668;DHT22;18003;-33.830;151.202;2023-07-29T09:55:33;15.60;99.90
25668;DHT22;18003;-33.830;151.202;2023-07-29T09:58:00;15.80;99.90
25668;DHT22;18003;-33.830;151.202;2023-07-29T10:00:31;15.90;99.90
25668;DHT22;18003;-33.830;151.202;2023-07-29T10:03:01;16.00;99.90
25668;DHT22;18003;-33.830;151.202;2023-07-29T10:05:33;16.00;99.90
25668;DHT22;18003;-33.830;151.202;2023-07-29T10:08:12;16.10;99.90
25668;DHT22;18003;-33.830;151.202;2023-07-29T10:10:38;16.10;99.90
25668;DHT22;18003;-33.830;151.202;2023-07-29T10:13:08;16.10;99.90
25668;DHT22;18003;-33.830;151.202;2023-07-29T10:15:39;16.10;99.90
25668;DHT22;18003;-33.830;151.202;2023-07-29T10:18:10;16.10;99.90
25668;DHT22;18003;-33.830;151.202;2023-07-29T10:20:41;16.10;99.90
25668;DHT22;18003;-33.830;151.202;2023-07-29T10:23:12;16.10;99.90
25668;DHT22;18003;-33.830;151.202;2023-07-29T10:25:43;16.10;99.90
25668;DHT22;18003;-33.830;151.202;2023-07-29T10:28:13;16.10;99.90
25668;DHT22;18003;-33.830;151.202;2023-07-29T10:30:44;16.10;99.90
25668;DHT22;18003;-33.830;151.202;2023-07-29T10:33:15;16.10;99.90
25668;DHT22;18003;-33.830;151.202;2023-07-29T10:35:46;16.10;99.90
25668;DHT22;18003;-33.830;151.202;2023-07-29T10:38:16;16.10;99.90
25668;DHT22;18003;-33.830;151.202;2023-07-29T10:40:51;16.10;99.90
25668;DHT22;18003;-33.830;151.202;2023-07-29T10:46:21;16.10;99.90
25668;DHT22;18003;-33.830;151.202;2023-07-29T10:48:55;16.10;99.90
25668;DHT22;18003;-33.830;151.202;2023-07-29T10:51:30;16.10;99.90
25668;DHT22;18003;-33.830;151.202;2023-07-29T10:54:03;16.10;99.90
25668;DHT22;18003;-33.830;151.202;2023-07-29T10:56:34;16.10;99.90
25668;DHT22;18003;-33.830;151.202;2023-07-29T11:01:53;16.10;99.90
25668;DHT22;18003;-33.830;151.202;2023-07-29T11:04:23;16.10;99.90
25668;DHT22;18003;-33.830;151.202;2023-07-29T11:12:46;16.00;99.90
25668;DHT22;18003;-33.830;151.202;2023-07-29T11:15:18;16.10;99.90
25668;DHT22;18003;-33.830;151.202;2023-07-29T11:17:50;16.00;99.90
25668;DHT22;18003;-33.830;151.202;2023-07-29T11:20:21;16.00;99.90
25668;DHT22;18003;-33.830;151.202;2023-07-29T11:22:55;16.00;99.90
25668;DHT22;18003;-33.830;151.202;2023-07-29T11:25:26;16.00;99.90
25668;DHT22;18003;-33.830;151.202;2023-07-29T11:27:58;16.00;99.90
25668;DHT22;18003;-33.830;151.202;2023-07-29T11:30:29;16.00;99.90
25668;DHT22;18003;-33.830;151.202;2023-07-29T11:32:59;15.90;99.90
25668;DHT22;18003;-33.830;151.202;2023-07-29T11:35:29;15.90;99.90
25668;DHT22;18003;-33.830;151.202;2023-07-29T11:38:00;15.90;99.90
25668;DHT22;18003;-33.830;151.202;2023-07-29T11:40:30;16.00;99.90
25668;DHT22;18003;-33.830;151.202;2023-07-29T11:43:00;15.90;99.90
25668;DHT22;18003;-33.830;151.202;2023-07-29T11:45:30;15.90;99.90
25668;DHT22;18003;-33.830;151.202;2023-07-29T11:48:03;15.90;99.90
25668;DHT22;18003;-33.830;151.202;2023-07-29T11:50:34;15.90;99.90
25668;DHT22;18003;-33.830;151.202;2023-07-29T11:53:04;15.90;99.90
25668;DHT22;18003;-33.830;151.202;2023-07-29T11:55:34;15.80;99.90
25668;DHT22;18003;-33.830;151.202;2023-07-29T11:58:05;15.80;99.90
25668;DHT22;18003;-33.830;151.202;2023-07-29T12:00:35;15.80;99.90
25668;DHT22;18003;-33.830;151.202;2023-07-29T12:03:06;15.90;99.90
25668;DHT22;18003;-33.830;151.202;2023-07-29T12:05:38;15.80;99.90
25668;DHT22;18003;-33.830;151.202;2023-07-29T12:08:09;15.80;99.90
25668;DHT22;18003;-33.830;151.202;2023-07-29T12:10:39;15.80;99.90
25668;DHT22;18003;-33.830;151.202;2023-07-29T12:13:09;15.80;99.90
25668;DHT22;18003;-33.830;151.202;2023-07-29T12:15:40;15.80;99.90
25668;DHT22;18003;-33.830;151.202;2023-07-29T12:18:10;15.80;99.90
25668;DHT22;18003;-33.830;151.202;2023-07-29T12:20:42;15.80;99.90
25668;DHT22;18003;-33.830;151.202;2023-07-29T12:23:13;15.70;99.90
25668;DHT22;18003;-33.830;151.202;2023-07-29T12:25:43;15.70;99.90
25668;DHT22;18003;-33.830;151.202;2023-07-29T12:28:16;15.70;99.90
25668;DHT22;18003;-33.830;151.202;2023-07-29T12:30:47;15.70;99.90
25668;DHT22;18003;-33.830;151.202;2023-07-29T12:33:34;15.70;99.90
25668;DHT22;18003;-33.830;151.202;2023-07-29T12:36:02;15.70;99.90
25668;DHT22;18003;-33.830;151.202;2023-07-29T12:38:32;15.70;99.90
25668;DHT22;18003;-33.830;151.202;2023-07-29T12:41:02;15.70;99.90
25668;DHT22;18003;-33.830;151.202;2023-07-29T12:43:32;15.70;99.90
25668;DHT22;18003;-33.830;151.202;2023-07-29T12:46:03;15.60;99.90
25668;DHT22;18003;-33.830;151.202;2023-07-29T12:48:33;15.60;99.90
25668;DHT22;18003;-33.830;151.202;2023-07-29T12:51:03;15.60;99.90
25668;DHT22;18003;-33.830;151.202;2023-07-29T12:53:33;15.60;99.90
25668;DHT22;18003;-33.830;151.202;2023-07-29T12:56:03;15.60;99.90
25668;DHT22;18003;-33.830;151.202;2023-07-29T12:58:33;15.60;99.90
25668;DHT22;18003;-33.830;151.202;2023-07-29T13:01:03;15.60;99.90
25668;DHT22;18003;-33.830;151.202;2023-07-29T13:03:33;15.60;99.90
25668;DHT22;18003;-33.830;151.202;2023-07-29T13:06:03;15.50;99.90
25668;DHT22;18003;-33.830;151.202;2023-07-29T13:08:34;15.30;99.90
25668;DHT22;18003;-33.830;151.202;2023-07-29T13:11:05;15.10;99.90
25668;DHT22;18003;-33.830;151.202;2023-07-29T13:13:42;15.00;99.90
25668;DHT22;18003;-33.830;151.202;2023-07-29T13:16:13;14.90;99.90
25668;DHT22;18003;-33.830;151.202;2023-07-29T13:18:44;14.80;99.90
25668;DHT22;18003;-33.830;151.202;2023-07-29T13:21:14;14.70;99.90
25668;DHT22;18003;-33.830;151.202;2023-07-29T13:23:44;14.70;99.90
25668;DHT22;18003;-33.830;151.202;2023-07-29T13:26:14;14.50;99.90
25668;DHT22;18003;-33.830;151.202;2023-07-29T13:28:47;14.40;99.90
25668;DHT22;18003;-33.830;151.202;2023-07-29T13:31:17;14.30;99.90
25668;DHT22;18003;-33.830;151.202;2023-07-29T13:33:48;14.30;99.90
25668;DHT22;18003;-33.830;151.202;2023-07-29T13:36:18;14.20;99.90
25668;DHT22;18003;-33.830;151.202;2023-07-29T13:38:49;14.20;99.90
25668;DHT22;18003;-33.830;151.202;2023-07-29T13:41:19;14.20;99.90
25668;DHT22;18003;-33.830;151.202;2023-07-29T13:43:49;14.40;99.90
25668;DHT22;18003;-33.830;151.202;2023-07-29T13:46:19;14.60;99.90
25668;DHT22;18003;-33.830;151.202;2023-07-29T13:48:50;14.70;99.90
25668;DHT22;18003;-33.830;151.202;2023-07-29T13:51:20;14.80;99.90
25668;DHT22;18003;-33.830;151.202;2023-07-29T13:53:50;14.90;99.90
25668;DHT22;18003;-33.830;151.202;2023-07-29T13:56:20;14.90;99.90
25668;DHT22;18003;-33.830;151.202;2023-07-29T13:58:50;14.90;99.90
25668;DHT22;18003;-33.830;151.202;2023-07-29T14:01:20;14.90;99.90
25668;DHT22;18003;-33.830;151.202;2023-07-29T14:03:50;14.90;99.90
25668;DHT22;18003;-33.830;151.202;2023-07-29T14:06:21;15.00;99.90
25668;DHT22;18003;-33.830;151.202;2023-07-29T14:08:51;15.00;99.90
25668;DHT22;18003;-33.830;151.202;2023-07-29T14:11:21;15.00;99.90
25668;DHT22;18003;-33.830;151.202;2023-07-29T14:13:52;15.00;99.90
25668;DHT22;18003;-33.830;151.202;2023-07-29T14:16:22;15.00;99.90
25668;DHT22;18003;-33.830;151.202;2023-07-29T14:18:53;15.00;99.90
25668;DHT22;18003;-33.830;151.202;2023-07-29T14:21:23;15.00;99.90
25668;DHT22;18003;-33.830;151.202;2023-07-29T14:23:53;15.00;99.90
25668;DHT22;18003;-33.830;151.202;2023-07-29T14:26:23;15.00;99.90
25668;DHT22;18003;-33.830;151.202;2023-07-29T14:28:53;15.00;99.90
25668;DHT22;18003;-33.830;151.202;2023-07-29T14:31:24;15.00;99.90
25668;DHT22;18003;-33.830;151.202;2023-07-29T14:33:54;15.00;99.90
25668;DHT22;18003;-33.830;151.202;2023-07-29T14:36:24;15.00;99.90
25668;DHT22;18003;-33.830;151.202;2023-07-29T14:38:54;15.00;99.90
25668;DHT22;18003;-33.830;151.202;2023-07-29T14:41:24;15.00;99.90
25668;DHT22;18003;-33.830;151.202;2023-07-29T14:43:54;15.00;99.90
25668;DHT22;18003;-33.830;151.202;2023-07-29T14:46:25;15.00;99.90
25668;DHT22;18003;-33.830;151.202;2023-07-29T14:48:55;15.00;99.90
25668;DHT22;18003;-33.830;151.202;2023-07-29T14:51:25;15.00;99.90
25668;DHT22;18003;-33.830;151.202;2023-07-29T14:53:55;15.00;99.90
25668;DHT22;18003;-33.830;151.202;2023-07-29T14:56:25;15.00;99.90
25668;DHT22;18003;-33.830;151.202;2023-07-29T14:58:55;15.00;99.90
25668;DHT22;18003;-33.830;151.202;2023-07-29T15:01:25;15.00;99.90
25668;DHT22;18003;-33.830;151.202;2023-07-29T15:03:56;15.00;99.90
25668;DHT22;18003;-33.830;151.202;2023-07-29T15:06:29;15.00;99.90
25668;DHT22;18003;-33.830;151.202;2023-07-29T15:08:59;15.00;99.90
25668;DHT22;18003;-33.830;151.202;2023-07-29T15:11:29;15.00;99.90
25668;DHT22;18003;-33.830;151.202;2023-07-29T15:14:00;15.00;99.90
25668;DHT22;18003;-33.830;151.202;2023-07-29T15:16:32;15.00;99.90
25668;DHT22;18003;-33.830;151.202;2023-07-29T15:19:04;15.00;99.90
25668;DHT22;18003;-33.830;151.202;2023-07-29T15:21:35;15.00;99.90
25668;DHT22;18003;-33.830;151.202;2023-07-29T15:24:05;15.00;99.90